SAVY/PMY METAR and TAF weather

Enter ICAO airport designator
Station Type Date Time Source
SAVY METAR 2021/05/14 15:25 UTC NOAA

SAVY 141525Z 20006KT 8000 BCFG SCT012 SCT018 10/10 Q1016


Station Type Date Time Source
SAVY Decoded METAR 2021/05/14 15:25 UTC NOAA

Puerto Madryn, CHT, Argentina (SAVY) 42-45-33S 065-06-10W
May 14, 2021 - 11:25 AM EDT / 2021.05.14 1525 UTC
Wind: from the SSW (200 degrees) at 7 MPH (6 KT):0
Visibility: 4 mile(s):0
Sky conditions: partly cloudy
Weather: patches of fog
Temperature: 50 F (10 C)
Dew Point: 50 F (10 C)
Relative Humidity: 100%
Pressure (altimeter): 30.00 in. Hg (1016 hPa)
ob: SAVY 141525Z 20006KT 8000 BCFG SCT012 SCT018 10/10 Q1016
cycle: 15

Station Type Date Time Source
SAVY TAF UTC NOAA

Error!

Example: see airport list